Terminal Aerodrome Forecast
Issued by NWS

Home | Current Version | Previous Version | Text Only | Print | Product List | Glossary On
Versions: 1 2 3 4 5 6 7 8 9 10 11 12 13 14 15 16 17 18 19 20 21
000
FTUS45 KPIH 210520
TAFSUN
TAF
KSUN 210520Z 2106/2212 32007KT P6SM VCSH FEW030 BKN050 OVC080
     FM211800 15008KT P6SM -SHRA FEW040 BKN060 OVC100
     FM220400 31007KT P6SM VCSH FEW040 BKN060=

USA.gov is the U.S. government's official web portal to all federal, state and local government web resources and services.